createdAt,value
2018-07-09T00:00:56.336Z,101766.56
2018-07-09T00:03:24.541Z,101769.41
2018-07-09T00:05:52.785Z,101765.63
2018-07-09T00:08:21.066Z,101763.42
2018-07-09T00:10:56.312Z,101761.77
2018-07-09T00:13:25.187Z,101751.87
2018-07-09T00:15:53.672Z,101761.89
2018-07-09T00:18:21.855Z,101769.92
2018-07-09T00:20:50.057Z,101773.29
2018-07-09T00:23:18.242Z,101771.52
2018-07-09T00:25:47.617Z,101764.23
2018-07-09T00:28:16.737Z,101768.91
2018-07-09T00:30:45.005Z,101763.88
2018-07-09T00:33:13.236Z,101764.47
2018-07-09T00:35:41.432Z,101759.29
2018-07-09T00:38:09.564Z,101763.11
2018-07-09T00:40:37.750Z,101758.41
2018-07-09T00:43:05.915Z,101760.96
2018-07-09T00:45:34.036Z,101770.37
2018-07-09T00:48:02.185Z,101768.73
2018-07-09T00:50:30.648Z,101766.30
2018-07-09T00:52:58.783Z,101765.11
2018-07-09T00:55:27.772Z,101758.17
2018-07-09T00:57:55.908Z,101756.31
2018-07-09T01:00:24.080Z,101758.95
2018-07-09T01:02:52.256Z,101762.02
2018-07-09T01:05:20.395Z,101760.40
2018-07-09T01:07:48.530Z,101759.94
2018-07-09T01:10:17.519Z,101755.99
2018-07-09T01:12:45.665Z,101757.61
2018-07-09T01:15:13.849Z,101759.63
2018-07-09T01:17:41.996Z,101760.40
2018-07-09T01:20:10.127Z,101756.06
2018-07-09T01:22:38.251Z,101757.53
2018-07-09T01:25:06.393Z,101762.72
2018-07-09T01:27:34.572Z,101754.08
2018-07-09T01:30:08.654Z,101753.53
2018-07-09T01:32:37.552Z,101747.26
2018-07-09T01:35:06.041Z,101747.81
2018-07-09T01:37:34.203Z,101749.73
2018-07-09T01:40:02.308Z,101746.57
2018-07-09T01:42:30.453Z,101747.33
2018-07-09T01:44:58.545Z,101740.25
2018-07-09T01:47:26.630Z,101744.55
2018-07-09T01:49:54.773Z,101741.00
2018-07-09T01:52:22.890Z,101743.70
2018-07-09T01:54:51.379Z,101741.86
2018-07-09T01:57:19.533Z,101741.23
2018-07-09T01:59:47.704Z,101740.92
2018-07-09T02:02:15.819Z,101739.70
2018-07-09T02:04:43.926Z,101739.78
2018-07-09T02:07:12.013Z,101738.92
2018-07-09T02:09:40.084Z,101741.91
2018-07-09T02:12:08.229Z,101738.83
2018-07-09T02:14:36.401Z,101737.44
2018-07-09T02:17:04.571Z,101733.16
2018-07-09T02:19:32.687Z,101732.28
2018-07-09T02:22:00.824Z,101733.95
2018-07-09T02:24:28.966Z,101735.76
2018-07-09T02:26:57.102Z,101733.12
2018-07-09T02:29:25.208Z,101734.15
2018-07-09T02:31:53.465Z,101721.61
2018-07-09T02:34:21.595Z,101724.09
2018-07-09T02:36:49.695Z,101713.11
2018-07-09T02:39:17.911Z,101713.49
2018-07-09T02:41:46.045Z,101717.36
2018-07-09T02:44:14.228Z,101713.15
2018-07-09T02:46:42.389Z,101713.30
2018-07-09T02:49:10.624Z,101713.66
2018-07-09T02:51:38.641Z,101719.05
2018-07-09T02:54:06.778Z,101707.87
2018-07-09T02:56:34.951Z,101707.02
2018-07-09T02:59:03.125Z,101700.77
2018-07-09T03:01:31.230Z,101707.44
2018-07-09T03:03:59.374Z,101697.27
2018-07-09T03:06:27.510Z,101702.54
2018-07-09T03:08:55.688Z,101697.34
2018-07-09T03:11:23.839Z,101699.89
2018-07-09T03:13:51.982Z,101707.72
2018-07-09T03:16:20.099Z,101720.98
2018-07-09T03:18:48.273Z,101721.92
2018-07-09T03:21:16.440Z,101729.33
2018-07-09T03:23:44.617Z,101719.06
2018-07-09T03:26:12.787Z,101724.87
2018-07-09T03:28:40.937Z,101724.26
2018-07-09T03:31:09.125Z,101723.53
2018-07-09T03:33:37.290Z,101724.72
2018-07-09T03:36:05.466Z,101720.13
2018-07-09T03:38:33.653Z,101712.25
2018-07-09T03:41:01.785Z,101719.85
2018-07-09T03:43:29.888Z,101718.59
2018-07-09T03:45:57.999Z,101719.66
2018-07-09T03:48:26.170Z,101719.19
2018-07-09T03:50:54.265Z,101717.30
2018-07-09T03:53:22.418Z,101720.23
2018-07-09T03:55:50.573Z,101716.25
2018-07-09T03:58:18.667Z,101712.06
2018-07-09T04:00:46.772Z,101704.40
2018-07-09T04:03:14.868Z,101709.26
2018-07-09T04:05:42.972Z,101705.31
2018-07-09T04:08:11.058Z,101699.01
2018-07-09T04:10:39.170Z,101708.13
2018-07-09T04:13:07.473Z,101700.38
2018-07-09T04:15:35.554Z,101700.38
2018-07-09T04:18:03.642Z,101698.60
2018-07-09T04:20:31.748Z,101694.28
2018-07-09T04:22:59.816Z,101701.48
2018-07-09T04:25:27.946Z,101691.56
2018-07-09T04:27:56.034Z,101690.77
2018-07-09T04:30:24.137Z,101691.77
2018-07-09T04:32:52.216Z,101686.16
2018-07-09T04:35:20.289Z,101687.22
2018-07-09T04:37:48.857Z,101693.20
2018-07-09T04:40:16.891Z,101685.13
2018-07-09T04:42:44.981Z,101690.39
2018-07-09T04:45:13.096Z,101681.97
2018-07-09T04:47:41.198Z,101684.35
2018-07-09T04:50:09.259Z,101679.98
2018-07-09T04:52:37.349Z,101679.86
2018-07-09T04:55:05.423Z,101681.11
2018-07-09T04:57:33.579Z,101683.92
2018-07-09T05:00:01.689Z,101684.70
2018-07-09T05:02:29.780Z,101683.66
2018-07-09T05:04:57.918Z,101681.37
2018-07-09T05:07:25.985Z,101682.16
2018-07-09T05:09:54.089Z,101682.33
2018-07-09T05:12:22.178Z,101682.78
2018-07-09T05:14:50.280Z,101684.56
2018-07-09T05:17:18.356Z,101676.37
2018-07-09T05:19:46.521Z,101677.80
2018-07-09T05:22:14.592Z,101678.75
2018-07-09T05:24:42.677Z,101676.37
2018-07-09T05:27:10.795Z,101670.81
2018-07-09T05:49:15.918Z,101676.27
2018-07-09T05:54:22.542Z,101664.45
2018-07-09T05:56:50.627Z,101658.70
2018-07-09T05:59:18.736Z,101657.55
2018-07-09T06:01:46.842Z,101656.97
2018-07-09T06:04:14.948Z,101654.55
2018-07-09T06:06:43.036Z,101656.61
2018-07-09T06:09:11.598Z,101652.34
2018-07-09T06:11:39.750Z,101646.73
2018-07-09T06:14:07.881Z,101651.44
2018-07-09T06:16:35.956Z,101644.06
2018-07-09T06:19:04.066Z,101647.25
2018-07-09T06:21:32.171Z,101642.41
2018-07-09T06:24:00.972Z,101650.28
2018-07-09T06:26:29.092Z,101641.09
2018-07-09T06:28:57.192Z,101651.41
2018-07-09T06:31:25.323Z,101649.20
2018-07-09T06:33:53.407Z,101652.79
2018-07-09T06:36:21.508Z,101649.36
2018-07-09T06:38:49.639Z,101645.32
2018-07-09T06:41:17.730Z,101646.88
2018-07-09T06:43:45.838Z,101640.85
2018-07-09T06:46:13.939Z,101634.33
2018-07-09T06:48:42.045Z,101630.52
2018-07-09T06:51:10.125Z,101633.75
2018-07-09T06:53:38.269Z,101636.41
2018-07-09T06:56:06.374Z,101628.28
2018-07-09T06:58:34.460Z,101631.31
2018-07-09T07:01:02.669Z,101624.61
2018-07-09T07:03:30.740Z,101621.11
2018-07-09T07:05:58.847Z,101622.23
2018-07-09T07:08:26.952Z,101613.31
2018-07-09T07:10:55.360Z,101612.80
2018-07-09T07:13:23.525Z,101607.52
2018-07-09T07:15:51.624Z,101609.58
2018-07-09T07:18:19.766Z,101607.36
2018-07-09T07:20:47.894Z,101617.80
2018-07-09T07:23:15.994Z,101608.94
2018-07-09T07:25:44.106Z,101610.31
2018-07-09T07:28:12.210Z,101621.11
2018-07-09T07:30:40.368Z,101612.50
2018-07-09T07:33:08.484Z,101609.20
2018-07-09T07:35:36.550Z,101605.80
2018-07-09T07:38:04.654Z,101606.93
2018-07-09T07:40:32.767Z,101596.93
2018-07-09T07:43:00.908Z,101593.98
2018-07-09T07:45:28.996Z,101585.98
2018-07-09T07:47:57.119Z,101587.97
2018-07-09T07:50:25.316Z,101579.47
2018-07-09T07:52:53.328Z,101575.38
2018-07-09T07:55:21.468Z,101572.67
2018-07-09T07:57:49.582Z,101577.43
2018-07-09T08:00:17.666Z,101577.66
2018-07-09T08:02:45.877Z,101577.95
2018-07-09T08:05:14.009Z,101582.66
2018-07-09T08:07:42.117Z,101570.13
2018-07-09T08:10:10.207Z,101577.70
2018-07-09T08:15:06.519Z,101564.12
2018-07-09T08:17:34.634Z,101564.69
2018-07-09T08:20:02.796Z,101561.72
2018-07-09T08:22:30.885Z,101563.80
2018-07-09T08:24:59.095Z,101562.81
2018-07-09T08:27:27.362Z,101566.23
2018-07-09T08:29:55.443Z,101555.08
2018-07-09T08:32:23.607Z,101561.98
2018-07-09T08:34:52.025Z,101567.12
2018-07-09T08:37:20.173Z,101560.24
2018-07-09T08:39:48.288Z,101551.09
2018-07-09T08:42:16.408Z,101560.52
2018-07-09T08:44:44.549Z,101565.35
2018-07-09T08:47:13.424Z,101561.42
2018-07-09T08:49:41.684Z,101545.81
2018-07-09T08:52:09.803Z,101549.20
2018-07-09T08:54:37.966Z,101537.52
2018-07-09T08:57:06.061Z,101537.02
2018-07-09T08:59:34.444Z,101521.18
2018-07-09T09:02:02.579Z,101528.14
2018-07-09T09:04:30.704Z,101518.70
2018-07-09T09:06:58.854Z,101523.62
2018-07-09T09:09:27.015Z,101522.06
2018-07-09T09:11:55.121Z,101516.31
2018-07-09T09:14:23.524Z,101525.85
2018-07-09T09:16:51.643Z,101526.34
2018-07-09T09:19:19.727Z,101531.27
2018-07-09T09:21:47.792Z,101522.45
2018-07-09T09:24:16.448Z,101517.08
2018-07-09T09:26:44.567Z,101526.35
2018-07-09T09:29:12.648Z,101523.61
2018-07-09T09:31:40.837Z,101523.75
2018-07-09T09:34:08.958Z,101530.14
2018-07-09T09:36:37.143Z,101531.53
2018-07-09T09:39:07.056Z,101533.89
2018-07-09T09:41:35.176Z,101530.48
2018-07-09T09:44:03.310Z,101530.72
2018-07-09T09:46:31.426Z,101532.09
2018-07-09T09:48:59.532Z,101533.03
2018-07-09T09:51:27.656Z,101527.67
2018-07-09T09:53:55.779Z,101512.85
2018-07-09T09:56:24.308Z,101521.10
2018-07-09T09:58:52.439Z,101511.68
2018-07-09T10:01:20.552Z,101522.72
2018-07-09T10:03:48.681Z,101526.83
2018-07-09T10:06:16.837Z,101526.34
2018-07-09T10:08:45.045Z,101517.77
2018-07-09T10:11:13.177Z,101530.62
2018-07-09T10:13:41.277Z,101527.47
2018-07-09T10:16:09.416Z,101524.78
2018-07-09T10:18:37.590Z,101519.98
2018-07-09T10:21:06.204Z,101521.77
2018-07-09T10:23:34.380Z,101522.30
2018-07-09T10:26:02.539Z,101511.42
2018-07-09T10:28:30.681Z,101516.89
2018-07-09T10:30:58.896Z,101516.14
2018-07-09T10:33:27.199Z,101518.70
2018-07-09T10:35:55.304Z,101507.56
2018-07-09T10:38:23.414Z,101509.75
2018-07-09T10:40:51.575Z,101520.69
2018-07-09T10:43:19.680Z,101512.77
2018-07-09T10:45:47.769Z,101523.77
2018-07-09T10:48:15.861Z,101529.09
2018-07-09T10:50:43.989Z,101523.49
2018-07-09T10:53:12.110Z,101521.87
2018-07-09T10:55:40.266Z,101524.35
2018-07-09T10:58:08.469Z,101518.55
2018-07-09T11:00:36.688Z,101517.49
2018-07-09T11:03:05.151Z,101523.27
2018-07-09T11:05:33.388Z,101525.80
2018-07-09T11:08:01.554Z,101517.98
2018-07-09T11:10:29.730Z,101515.43
2018-07-09T11:12:57.856Z,101522.98
2018-07-09T11:15:25.999Z,101522.05
2018-07-09T11:17:54.104Z,101524.89
2018-07-09T11:20:22.219Z,101528.39
2018-07-09T11:22:50.352Z,101527.92
2018-07-09T11:25:18.515Z,101518.91
2018-07-09T11:27:46.656Z,101534.20
2018-07-09T11:30:14.807Z,101529.75
2018-07-09T11:32:42.914Z,101533.05
2018-07-09T11:35:11.068Z,101538.85
2018-07-09T11:37:39.226Z,101527.66
2018-07-09T11:40:07.414Z,101533.09
2018-07-09T11:42:35.540Z,101539.69
2018-07-09T11:45:03.674Z,101543.55
2018-07-09T11:47:31.838Z,101538.89
2018-07-09T11:49:59.987Z,101539.00
2018-07-09T11:52:28.137Z,101528.87
2018-07-09T11:54:56.269Z,101530.16
2018-07-09T11:57:24.417Z,101527.27
2018-07-09T11:59:52.585Z,101526.55
2018-07-09T12:02:20.698Z,101533.74
2018-07-09T12:04:48.862Z,101533.66
2018-07-09T12:07:16.965Z,101531.91
2018-07-09T12:09:45.088Z,101529.58
2018-07-09T12:12:13.208Z,101533.44
2018-07-09T12:14:41.337Z,101526.16
2018-07-09T12:17:09.539Z,101524.45
2018-07-09T12:19:37.663Z,101520.21
2018-07-09T12:22:05.896Z,101526.98
2018-07-09T12:24:34.060Z,101523.78
2018-07-09T12:27:02.209Z,101525.89
2018-07-09T12:29:30.410Z,101527.03
2018-07-09T12:31:58.557Z,101527.63
2018-07-09T12:34:26.696Z,101530.04
2018-07-09T12:36:54.836Z,101518.45
2018-07-09T12:39:22.984Z,101529.55
2018-07-09T12:41:51.137Z,101527.86
2018-07-09T12:44:19.272Z,101528.39
2018-07-09T12:46:47.457Z,101523.23
2018-07-09T12:49:15.573Z,101522.71
2018-07-09T12:51:43.732Z,101535.75
2018-07-09T12:54:11.904Z,101521.39
2018-07-09T12:56:40.049Z,101522.48
2018-07-09T12:59:08.224Z,101524.27
2018-07-09T13:01:36.444Z,101527.41
2018-07-09T13:04:04.539Z,101531.05
2018-07-09T13:06:32.668Z,101523.83
2018-07-09T13:09:00.814Z,101517.20
2018-07-09T13:11:28.995Z,101524.44
2018-07-09T13:13:57.160Z,101516.83
2018-07-09T13:16:25.280Z,101526.11
2018-07-09T13:18:53.431Z,101532.13
2018-07-09T13:21:21.609Z,101533.06
2018-07-09T13:23:49.774Z,101531.45
2018-07-09T13:26:17.892Z,101526.19
2018-07-09T13:28:46.012Z,101531.09
2018-07-09T13:31:14.204Z,101533.97
2018-07-09T13:33:42.428Z,101533.14
2018-07-09T13:36:10.581Z,101535.59
2018-07-09T13:38:38.680Z,101531.98
2018-07-09T13:41:06.800Z,101532.23
2018-07-09T13:43:34.957Z,101534.52
2018-07-09T13:46:03.141Z,101537.15
2018-07-09T13:48:31.289Z,101534.98
2018-07-09T13:50:59.441Z,101538.33
2018-07-09T13:53:27.617Z,101535.15
2018-07-09T13:55:55.730Z,101536.67
2018-07-09T13:58:23.848Z,101539.91
2018-07-09T14:00:51.991Z,101536.51
2018-07-09T14:03:20.130Z,101533.63
2018-07-09T14:05:48.290Z,101530.36
2018-07-09T14:08:16.462Z,101519.18
2018-07-09T14:10:44.611Z,101524.08
2018-07-09T14:13:12.741Z,101525.52
2018-07-09T14:15:40.878Z,101510.61
2018-07-09T14:18:08.976Z,101513.06
2018-07-09T14:20:42.797Z,101510.14
2018-07-09T14:23:12.191Z,101509.66
2018-07-09T14:25:40.519Z,101512.45
2018-07-09T14:28:08.595Z,101500.17
2018-07-09T14:30:36.890Z,101498.81
2018-07-09T14:33:05.289Z,101504.04
2018-07-09T14:35:33.470Z,101492.45
2018-07-09T14:38:01.564Z,101487.95
2018-07-09T14:40:29.705Z,101491.80
2018-07-09T14:42:57.861Z,101482.70
2018-07-09T14:45:26.032Z,101481.35
2018-07-09T14:47:54.219Z,101479.20
2018-07-09T14:50:22.395Z,101475.00
2018-07-09T14:52:50.556Z,101475.70
2018-07-09T14:55:18.686Z,101468.95
2018-07-09T14:57:46.809Z,101475.44
2018-07-09T15:00:14.961Z,101471.81
2018-07-09T15:02:43.090Z,101470.53
2018-07-09T15:05:11.225Z,101465.02
2018-07-09T15:07:39.376Z,101465.42
2018-07-09T15:10:07.492Z,101456.66
2018-07-09T15:12:35.639Z,101451.46
2018-07-09T15:15:03.819Z,101460.75
2018-07-09T15:17:31.921Z,101464.35
2018-07-09T15:20:00.014Z,101464.10
2018-07-09T15:22:28.153Z,101452.25
2018-07-09T15:24:56.294Z,101458.13
2018-07-09T15:27:24.414Z,101448.75
2018-07-09T15:29:52.622Z,101442.19
2018-07-09T15:32:25.923Z,101433.30
2018-07-09T15:34:54.130Z,101433.89
2018-07-09T15:37:22.301Z,101422.68
2018-07-09T15:39:50.523Z,101431.59
2018-07-09T15:42:18.651Z,101426.19
2018-07-09T15:44:46.814Z,101431.55
2018-07-09T15:47:14.944Z,101422.45
2018-07-09T15:49:43.420Z,101419.19
2018-07-09T15:52:11.552Z,101409.61
2018-07-09T15:54:39.664Z,101401.55
2018-07-09T15:57:07.886Z,101399.50
2018-07-09T15:59:36.053Z,101401.72
2018-07-09T16:02:04.229Z,101404.94
2018-07-09T16:04:32.337Z,101405.35
2018-07-09T16:07:00.419Z,101411.59
2018-07-09T16:09:28.538Z,101417.89
2018-07-09T16:11:56.682Z,101402.68
2018-07-09T16:14:24.821Z,101400.37
2018-07-09T16:16:52.972Z,101395.08
2018-07-09T16:19:21.107Z,101387.98
2018-07-09T16:21:49.275Z,101388.20
2018-07-09T16:24:17.381Z,101379.42
2018-07-09T16:26:45.554Z,101384.12
2018-07-09T16:29:13.825Z,101387.36
2018-07-09T16:31:41.785Z,101388.94
2018-07-09T16:34:09.975Z,101381.59
2018-07-09T16:36:38.137Z,101381.95
2018-07-09T16:39:07.000Z,101381.27
2018-07-09T16:41:35.296Z,101385.45
2018-07-09T16:44:03.474Z,101386.99
2018-07-09T16:46:31.578Z,101381.59
2018-07-09T16:48:59.781Z,101373.66
2018-07-09T16:51:27.907Z,101371.17
2018-07-09T16:53:56.048Z,101373.59
2018-07-09T16:56:24.159Z,101359.27
2018-07-09T16:58:52.322Z,101368.25
2018-07-09T17:01:20.407Z,101368.00
2018-07-09T17:03:48.523Z,101358.27
2018-07-09T17:06:16.712Z,101360.67
2018-07-09T17:08:44.864Z,101358.03
2018-07-09T17:11:13.009Z,101348.69
2018-07-09T17:13:41.114Z,101364.17
2018-07-09T17:16:09.268Z,101356.50
2018-07-09T17:18:37.425Z,101352.32
2018-07-09T17:21:05.548Z,101352.05
2018-07-09T17:23:33.657Z,101349.16
2018-07-09T17:26:01.791Z,101348.20
2018-07-09T17:28:29.895Z,101348.27
2018-07-09T17:30:58.071Z,101344.52
2018-07-09T17:33:26.239Z,101336.11
2018-07-09T17:35:54.447Z,101340.87
2018-07-09T17:38:22.645Z,101331.87
2018-07-09T17:40:50.771Z,101344.78
2018-07-09T17:43:18.925Z,101343.57
2018-07-09T17:45:47.175Z,101331.63
2018-07-09T17:48:15.255Z,101326.66
2018-07-09T17:50:43.344Z,101339.50
2018-07-09T17:53:11.477Z,101339.19
2018-07-09T17:55:39.651Z,101338.39
2018-07-09T17:58:07.777Z,101325.01
2018-07-09T18:00:35.914Z,101319.98
2018-07-09T18:03:04.010Z,101328.41
2018-07-09T18:05:32.213Z,101339.31
2018-07-09T18:08:00.366Z,101348.53
2018-07-09T18:10:28.526Z,101351.34
2018-07-09T18:12:56.956Z,101358.98
2018-07-09T18:15:25.106Z,101344.37
2018-07-09T18:17:53.314Z,101344.70
2018-07-09T18:20:21.400Z,101358.06
2018-07-09T18:22:49.520Z,101374.89
2018-07-09T18:25:17.613Z,101360.58
2018-07-09T18:27:45.712Z,101365.86
2018-07-09T18:30:13.842Z,101358.68
2018-07-09T18:32:42.090Z,101365.59
2018-07-09T18:35:10.212Z,101367.22
2018-07-09T18:37:38.362Z,101369.86
2018-07-09T18:40:06.504Z,101375.27
2018-07-09T18:42:34.621Z,101360.72
2018-07-09T18:45:02.822Z,101360.58
2018-07-09T18:47:30.940Z,101361.56
2018-07-09T18:49:59.122Z,101356.39
2018-07-09T18:52:27.919Z,101351.52
2018-07-09T18:54:56.021Z,101353.28
2018-07-09T18:57:24.183Z,101354.79
2018-07-09T18:59:52.987Z,101333.80
2018-07-09T19:02:21.127Z,101345.28
2018-07-09T19:04:49.215Z,101350.69
2018-07-09T19:07:26.556Z,101342.45
2018-07-09T19:09:54.716Z,101335.98
2018-07-09T19:12:23.101Z,101336.80
2018-07-09T19:14:51.870Z,101320.70
2018-07-09T19:18:00.924Z,101328.83
2018-07-09T19:20:40.405Z,101332.40
2018-07-09T19:23:08.324Z,101334.27
2018-07-09T19:25:36.493Z,101322.77
2018-07-09T19:28:04.783Z,101329.48
2018-07-09T19:30:32.008Z,101323.09
2018-07-09T19:32:59.228Z,101323.70
2018-07-09T19:35:26.451Z,101334.55
2018-07-09T19:37:53.873Z,101324.95
2018-07-09T19:40:20.669Z,101326.44
2018-07-09T19:42:47.764Z,101318.95
2018-07-09T19:45:14.873Z,101316.86
2018-07-09T19:47:42.055Z,101316.37
2018-07-09T19:50:09.091Z,101327.66
2018-07-09T19:52:36.214Z,101318.58
2018-07-09T19:55:03.329Z,101327.43
2018-07-09T19:57:30.451Z,101316.44
2018-07-09T19:59:57.555Z,101323.22
2018-07-09T20:02:24.686Z,101316.65
2018-07-09T20:04:51.801Z,101313.62
2018-07-09T20:07:18.915Z,101313.44
2018-07-09T20:09:51.522Z,101318.91
2018-07-09T20:13:23.678Z,101318.80
2018-07-09T20:15:56.015Z,101310.91
2018-07-09T20:18:23.169Z,101310.16
2018-07-09T20:20:50.334Z,101309.16
2018-07-09T20:23:17.439Z,101311.99
2018-07-09T20:25:44.534Z,101308.32
2018-07-09T20:28:11.648Z,101312.89
2018-07-09T20:30:38.754Z,101308.84
2018-07-09T20:33:05.895Z,101315.97
2018-07-09T20:35:33.026Z,101317.52
2018-07-09T20:38:00.145Z,101319.03
2018-07-09T20:40:27.268Z,101319.88
2018-07-09T20:42:54.388Z,101299.89
2018-07-09T20:45:21.503Z,101301.95
2018-07-09T20:47:48.626Z,101307.03
2018-07-09T20:50:15.744Z,101309.20
2018-07-09T20:52:42.858Z,101316.25
2018-07-09T20:55:10.000Z,101311.36
2018-07-09T20:57:37.130Z,101311.42
2018-07-09T21:00:04.244Z,101307.03
2018-07-09T21:02:31.358Z,101305.72
2018-07-09T21:04:58.477Z,101304.13
2018-07-09T21:07:25.679Z,101300.83
2018-07-09T21:09:52.791Z,101303.27
2018-07-09T21:12:19.897Z,101298.76
2018-07-09T21:14:46.995Z,101293.77
2018-07-09T21:17:14.109Z,101290.02
2018-07-09T21:19:41.861Z,101283.99
2018-07-09T21:22:09.056Z,101285.03
2018-07-09T21:24:36.151Z,101280.61
2018-07-09T21:27:03.276Z,101276.76
2018-07-09T21:29:30.400Z,101274.72
2018-07-09T21:31:57.517Z,101274.72
2018-07-09T21:34:24.637Z,101275.44
2018-07-09T21:36:51.765Z,101271.72
2018-07-09T21:39:18.884Z,101267.67
2018-07-09T21:41:46.020Z,101264.91
2018-07-09T21:44:13.146Z,101256.02
2018-07-09T21:46:40.276Z,101254.61
2018-07-09T21:49:07.408Z,101247.46
2018-07-09T21:51:35.322Z,101237.44
2018-07-09T21:54:02.454Z,101227.01
2018-07-09T21:56:29.699Z,101225.34
2018-07-09T21:58:56.746Z,101212.34
2018-07-09T22:01:23.880Z,101212.46
2018-07-09T22:03:51.013Z,101204.28
2018-07-09T22:06:18.141Z,101202.86
2018-07-09T22:08:45.270Z,101205.34
2018-07-09T22:11:12.389Z,101207.48
2018-07-09T22:13:39.514Z,101213.02
2018-07-09T22:16:06.679Z,101212.73
2018-07-09T22:18:33.788Z,101206.81
2018-07-09T22:21:00.922Z,101215.53
2018-07-09T22:23:28.029Z,101212.08
2018-07-09T22:25:55.144Z,101219.20
2018-07-09T22:28:22.240Z,101219.19
2018-07-09T22:30:50.344Z,101216.27
2018-07-09T22:33:18.467Z,101211.45
2018-07-09T22:35:46.568Z,101208.34
2018-07-09T22:38:14.661Z,101217.07
2018-07-09T22:40:42.784Z,101213.09
2018-07-09T22:43:22.285Z,101211.11
2018-07-09T22:45:50.371Z,101210.09
2018-07-09T22:48:18.497Z,101200.43
2018-07-09T22:50:46.697Z,101200.43
2018-07-09T22:53:14.828Z,101200.02
2018-07-09T22:55:54.223Z,101205.18
2018-07-09T22:58:22.364Z,101209.43
2018-07-09T23:00:50.493Z,101198.92
2018-07-09T23:03:18.654Z,101199.47
2018-07-09T23:05:47.140Z,101202.91
2018-07-09T23:08:15.272Z,101198.75
2018-07-09T23:13:00.071Z,101197.15
2018-07-09T23:15:39.630Z,101219.06
2018-07-09T23:19:23.184Z,101218.99
2018-07-09T23:22:01.570Z,101219.31
2018-07-09T23:24:28.710Z,101215.20
2018-07-09T23:26:56.204Z,101211.50
2018-07-09T23:29:23.311Z,101208.92
2018-07-09T23:31:50.515Z,101206.25
2018-07-09T23:34:18.284Z,101210.60
2018-07-09T23:36:45.416Z,101206.62
2018-07-09T23:39:12.721Z,101206.79
2018-07-09T23:41:39.841Z,101206.53
2018-07-09T23:44:06.981Z,101202.21
2018-07-09T23:46:34.116Z,101208.31
2018-07-09T23:49:01.245Z,101202.50
2018-07-09T23:51:28.372Z,101202.80
2018-07-09T23:53:55.488Z,101192.38
2018-07-09T23:57:01.974Z,101185.25
2018-07-09T23:59:41.602Z,101186.45
